createdAt,value
2023-08-29T00:01:55.633Z,4.40
2023-08-29T00:04:29.698Z,4.50
2023-08-29T00:07:03.429Z,4.93
2023-08-29T00:09:36.426Z,4.47
2023-08-29T00:12:09.365Z,4.63
2023-08-29T00:14:42.007Z,4.93
2023-08-29T00:17:17.353Z,4.97
2023-08-29T00:19:51.336Z,5.27
2023-08-29T00:22:23.993Z,5.30
2023-08-29T00:25:00.463Z,5.33
2023-08-29T00:27:33.293Z,4.97
2023-08-29T00:30:06.520Z,5.23
2023-08-29T00:32:39.223Z,4.87
2023-08-29T00:35:13.343Z,5.63
2023-08-29T00:37:46.066Z,4.60
2023-08-29T00:40:18.555Z,4.77
2023-08-29T00:42:51.223Z,5.03
2023-08-29T00:45:24.059Z,4.97
2023-08-29T00:47:57.219Z,4.20
2023-08-29T00:50:31.720Z,5.10
2023-08-29T00:53:06.170Z,5.40
2023-08-29T00:55:38.951Z,5.10
2023-08-29T00:58:11.696Z,4.90
2023-08-29T01:00:47.438Z,4.70
2023-08-29T01:03:20.147Z,5.03
2023-08-29T01:05:54.265Z,4.70
2023-08-29T01:08:27.048Z,5.03
2023-08-29T01:11:02.663Z,4.93
2023-08-29T01:13:46.891Z,5.77
2023-08-29T01:16:23.400Z,4.97
2023-08-29T01:18:59.197Z,4.50
2023-08-29T01:21:37.889Z,4.73
2023-08-29T01:24:13.237Z,5.67
2023-08-29T01:26:48.127Z,4.93
2023-08-29T01:29:21.985Z,5.17
2023-08-29T01:31:54.558Z,5.10
2023-08-29T01:34:29.787Z,5.33
2023-08-29T01:37:02.477Z,5.30
2023-08-29T01:39:35.194Z,5.30
2023-08-29T01:42:15.622Z,4.63
2023-08-29T01:44:48.246Z,4.97
2023-08-29T01:47:21.004Z,5.37
2023-08-29T01:49:56.701Z,4.90
2023-08-29T01:52:32.520Z,4.33
2023-08-29T01:55:06.777Z,4.70
2023-08-29T01:57:40.844Z,5.17
2023-08-29T02:00:14.548Z,4.63
2023-08-29T02:02:47.251Z,4.37
2023-08-29T02:05:20.057Z,4.33
2023-08-29T02:07:52.804Z,4.20
2023-08-29T02:10:25.978Z,4.10
2023-08-29T02:12:59.994Z,4.03
2023-08-29T02:15:32.682Z,3.80
2023-08-29T02:18:05.872Z,4.03
2023-08-29T02:20:38.879Z,3.70
2023-08-29T02:23:11.442Z,3.73
2023-08-29T02:25:44.295Z,3.57
2023-08-29T02:28:18.363Z,3.40
2023-08-29T02:30:51.053Z,3.53
2023-08-29T02:33:23.816Z,3.20
2023-08-29T02:35:56.536Z,3.53
2023-08-29T02:38:29.155Z,3.37
2023-08-29T02:41:03.034Z,3.17
2023-08-29T02:43:39.789Z,3.80
2023-08-29T02:46:12.591Z,3.40
2023-08-29T02:48:47.766Z,3.13
2023-08-29T02:51:20.456Z,3.03
2023-08-29T02:53:55.640Z,3.20
2023-08-29T02:56:28.320Z,3.30
2023-08-29T02:59:02.504Z,3.30
2023-08-29T03:01:35.242Z,3.03
2023-08-29T03:04:09.921Z,2.90
2023-08-29T03:06:44.777Z,2.93
2023-08-29T03:09:17.414Z,2.93
2023-08-29T03:11:50.159Z,2.80
2023-08-29T03:14:28.118Z,2.80
2023-08-29T03:17:00.852Z,2.83
2023-08-29T03:19:33.616Z,2.83
2023-08-29T03:22:06.316Z,2.80
2023-08-29T03:24:38.897Z,2.17
2023-08-29T03:27:11.490Z,2.80
2023-08-29T03:29:45.552Z,2.33
2023-08-29T03:32:18.326Z,2.80
2023-08-29T03:34:53.344Z,2.50
2023-08-29T03:37:28.134Z,2.23
2023-08-29T03:40:00.846Z,2.33
2023-08-29T03:42:33.483Z,2.57
2023-08-29T03:45:08.088Z,2.70
2023-08-29T03:47:40.901Z,2.67
2023-08-29T03:50:13.515Z,2.47
2023-08-29T03:52:46.169Z,2.43
2023-08-29T03:55:18.837Z,2.73
2023-08-29T03:57:51.650Z,2.50
2023-08-29T04:00:25.627Z,2.43
2023-08-29T04:02:58.556Z,2.37
2023-08-29T04:05:31.296Z,2.50
2023-08-29T04:08:04.290Z,2.13
2023-08-29T04:10:40.621Z,2.73
2023-08-29T04:13:13.336Z,2.33
2023-08-29T04:15:47.453Z,2.23
2023-08-29T04:18:20.266Z,2.50
2023-08-29T04:20:52.940Z,2.73
2023-08-29T04:23:28.432Z,2.30
2023-08-29T04:26:01.916Z,2.00
2023-08-29T04:28:34.578Z,2.40
2023-08-29T04:31:14.029Z,2.00
2023-08-29T04:33:46.667Z,2.40
2023-08-29T04:36:22.190Z,2.50
2023-08-29T04:38:55.962Z,2.50
2023-08-29T04:41:28.748Z,2.60
2023-08-29T04:44:01.432Z,2.40
2023-08-29T04:46:35.439Z,2.50
2023-08-29T04:49:08.243Z,2.40
2023-08-29T04:51:41.769Z,2.87
2023-08-29T04:54:14.525Z,2.33
2023-08-29T04:56:47.058Z,2.07
2023-08-29T04:59:20.721Z,3.00
2023-08-29T05:01:54.634Z,3.20
2023-08-29T05:04:27.299Z,3.10
2023-08-29T05:06:59.898Z,3.27
2023-08-29T05:09:32.723Z,2.50
2023-08-29T05:12:05.871Z,2.73
2023-08-29T05:14:41.268Z,2.70
2023-08-29T05:17:15.269Z,2.47
2023-08-29T05:19:48.053Z,2.27
2023-08-29T05:22:20.702Z,2.47
2023-08-29T05:24:53.525Z,2.40
2023-08-29T05:27:26.095Z,2.67
2023-08-29T05:29:58.949Z,2.63
2023-08-29T05:32:33.268Z,2.43
2023-08-29T05:35:06.396Z,2.57
2023-08-29T05:37:39.703Z,2.87
2023-08-29T05:40:15.237Z,2.80
2023-08-29T05:42:47.936Z,3.30
2023-08-29T05:45:20.674Z,2.70
2023-08-29T05:47:55.075Z,2.50
2023-08-29T05:50:27.800Z,2.57
2023-08-29T05:53:03.533Z,2.80
2023-08-29T05:55:36.703Z,2.87
2023-08-29T05:58:09.492Z,2.80
2023-08-29T06:00:42.329Z,2.67
2023-08-29T06:03:19.275Z,2.67
2023-08-29T06:05:56.601Z,2.80
2023-08-29T06:08:29.524Z,2.73
2023-08-29T06:11:02.346Z,2.67
2023-08-29T06:13:35.610Z,2.90
2023-08-29T06:16:08.335Z,2.70
2023-08-29T06:18:42.360Z,3.00
2023-08-29T06:21:14.994Z,3.33
2023-08-29T06:23:47.846Z,3.20
2023-08-29T06:26:20.534Z,3.20
2023-08-29T06:28:53.210Z,2.83
2023-08-29T06:31:26.200Z,3.20
2023-08-29T06:34:00.909Z,3.30
2023-08-29T06:36:34.008Z,2.83
2023-08-29T06:39:07.249Z,3.20
2023-08-29T06:41:40.204Z,3.40
2023-08-29T06:44:14.246Z,3.30
2023-08-29T06:46:50.199Z,3.77
2023-08-29T06:49:41.278Z,3.43
2023-08-29T06:52:14.094Z,3.63
2023-08-29T06:54:48.349Z,3.27
2023-08-29T06:57:21.754Z,3.57
2023-08-29T06:59:54.435Z,3.90
2023-08-29T07:02:27.131Z,3.53
2023-08-29T07:05:01.236Z,4.20
2023-08-29T07:07:34.133Z,3.20
2023-08-29T07:10:07.197Z,3.87
2023-08-29T07:12:39.929Z,3.53
2023-08-29T07:15:12.568Z,3.47
2023-08-29T07:17:45.347Z,3.60
2023-08-29T07:20:19.402Z,5.20
2023-08-29T07:22:52.032Z,4.30
2023-08-29T07:25:37.343Z,3.80
2023-08-29T07:28:10.736Z,4.17
2023-08-29T07:30:44.398Z,4.23
2023-08-29T07:33:17.300Z,4.17
2023-08-29T07:35:51.793Z,4.60
2023-08-29T07:38:24.784Z,4.73
2023-08-29T07:40:58.352Z,4.80
2023-08-29T07:43:31.149Z,5.17
2023-08-29T07:46:03.789Z,4.77
2023-08-29T07:48:36.678Z,5.70
2023-08-29T07:51:10.722Z,5.97
2023-08-29T07:53:43.414Z,5.30
2023-08-29T07:56:16.065Z,5.50
2023-08-29T07:58:49.875Z,5.63
2023-08-29T08:01:22.556Z,6.13
2023-08-29T08:03:55.261Z,5.33
2023-08-29T08:06:29.402Z,5.43
2023-08-29T08:09:02.318Z,6.23
2023-08-29T08:11:35.033Z,5.90
2023-08-29T08:14:08.557Z,6.30
2023-08-29T08:16:41.549Z,6.00
2023-08-29T08:19:14.458Z,5.83
2023-08-29T08:21:51.105Z,5.40
2023-08-29T08:24:24.039Z,5.37
2023-08-29T08:26:56.835Z,5.53
2023-08-29T08:29:29.524Z,5.83
2023-08-29T08:32:02.165Z,6.03
2023-08-29T08:34:34.825Z,6.67
2023-08-29T08:37:09.814Z,7.33
2023-08-29T08:39:45.280Z,6.47
2023-08-29T08:42:18.124Z,7.03
2023-08-29T08:44:50.944Z,7.50
2023-08-29T08:47:28.656Z,6.70
2023-08-29T08:50:01.317Z,6.30
2023-08-29T08:52:35.592Z,5.87
2023-08-29T08:55:08.823Z,6.27
2023-08-29T08:57:41.712Z,5.57
2023-08-29T09:00:14.753Z,5.80
2023-08-29T09:02:47.675Z,5.73
2023-08-29T09:05:20.716Z,5.27
2023-08-29T09:07:54.680Z,5.50
2023-08-29T09:10:27.528Z,5.30
2023-08-29T09:13:00.222Z,5.63
2023-08-29T09:15:33.447Z,5.30
2023-08-29T09:18:07.343Z,4.00
2023-08-29T09:20:43.851Z,4.10
2023-08-29T09:23:24.359Z,4.10
2023-08-29T09:25:57.487Z,7.93
2023-08-29T09:28:31.071Z,6.10
2023-08-29T09:31:08.173Z,5.30
2023-08-29T09:33:42.303Z,6.47
2023-08-29T09:36:15.309Z,5.43
2023-08-29T09:38:56.882Z,4.93
2023-08-29T09:41:33.970Z,4.80
2023-08-29T09:44:13.099Z,5.30
2023-08-29T09:46:47.990Z,5.33
2023-08-29T09:49:20.806Z,6.37
2023-08-29T09:51:54.156Z,5.20
2023-08-29T09:54:34.102Z,5.30
2023-08-29T09:57:08.274Z,5.93
2023-08-29T09:59:41.834Z,5.10
2023-08-29T10:02:20.041Z,4.70
2023-08-29T10:04:55.728Z,5.30
2023-08-29T10:07:29.904Z,4.70
2023-08-29T10:10:07.912Z,4.43
2023-08-29T10:12:48.969Z,4.47
2023-08-29T10:15:25.448Z,4.90
2023-08-29T10:18:01.046Z,3.87
2023-08-29T10:20:34.944Z,4.10
2023-08-29T10:23:12.196Z,4.30
2023-08-29T10:25:48.006Z,4.53
2023-08-29T10:28:21.832Z,4.33
2023-08-29T10:31:00.025Z,3.73
2023-08-29T10:33:33.235Z,3.87
2023-08-29T10:36:07.996Z,4.33
2023-08-29T10:38:41.021Z,3.97
2023-08-29T10:41:15.516Z,4.93
2023-08-29T10:43:51.812Z,4.63
2023-08-29T10:46:27.703Z,4.33
2023-08-29T10:49:01.305Z,6.00
2023-08-29T10:51:34.066Z,4.80
2023-08-29T10:54:13.752Z,4.57
2023-08-29T10:56:50.539Z,4.70
2023-08-29T10:59:29.713Z,5.70
2023-08-29T11:02:21.755Z,5.67
2023-08-29T11:05:11.896Z,5.20
2023-08-29T11:07:45.352Z,4.17
2023-08-29T11:10:23.100Z,4.97
2023-08-29T11:13:13.312Z,5.13
2023-08-29T11:16:10.258Z,7.73
2023-08-29T11:18:43.002Z,5.67
2023-08-29T11:21:18.878Z,4.83
2023-08-29T11:24:01.981Z,5.17
2023-08-29T11:26:46.571Z,5.00
2023-08-29T11:29:20.620Z,5.00
2023-08-29T11:31:55.508Z,5.50
2023-08-29T11:34:28.278Z,5.77
2023-08-29T11:37:01.186Z,6.80
2023-08-29T11:39:33.950Z,8.37
2023-08-29T11:42:50.338Z,5.97
2023-08-29T11:45:44.935Z,5.47
2023-08-29T11:48:00.809Z,6.13
2023-08-29T11:50:34.034Z,6.03
2023-08-29T11:53:08.184Z,6.67
2023-08-29T11:55:41.093Z,6.77
2023-08-29T11:58:13.948Z,5.97
2023-08-29T12:00:49.879Z,6.60
2023-08-29T12:03:23.161Z,6.37
2023-08-29T12:05:58.266Z,6.60
2023-08-29T12:08:42.678Z,6.10
2023-08-29T12:11:17.047Z,6.37
2023-08-29T12:14:02.987Z,7.40
2023-08-29T12:16:37.245Z,5.87
2023-08-29T12:19:15.174Z,6.90
2023-08-29T12:21:54.378Z,6.97
2023-08-29T12:24:27.011Z,6.37
2023-08-29T12:27:00.752Z,6.70
2023-08-29T12:29:34.519Z,5.60
2023-08-29T12:32:10.726Z,6.20
2023-08-29T12:34:44.936Z,6.43
2023-08-29T12:37:17.649Z,6.07
2023-08-29T12:39:50.609Z,5.30
2023-08-29T12:42:23.133Z,6.30
2023-08-29T12:44:59.913Z,5.93
2023-08-29T12:47:34.164Z,6.20
2023-08-29T12:50:10.125Z,6.00
2023-08-29T12:52:44.352Z,5.97
2023-08-29T12:55:17.105Z,6.43
2023-08-29T12:57:50.362Z,6.50
2023-08-29T13:00:23.087Z,6.00
2023-08-29T13:02:59.094Z,6.23
2023-08-29T13:05:31.956Z,6.30
2023-08-29T13:08:05.591Z,6.40
2023-08-29T13:10:40.065Z,6.53
2023-08-29T13:13:12.774Z,6.90
2023-08-29T13:15:51.653Z,6.57
2023-08-29T13:18:26.119Z,7.30
2023-08-29T13:20:59.004Z,7.70
2023-08-29T13:23:31.668Z,7.37
2023-08-29T13:26:04.879Z,7.23
2023-08-29T13:28:37.874Z,6.80
2023-08-29T13:31:10.641Z,7.50
2023-08-29T13:33:46.597Z,6.87
2023-08-29T13:36:19.564Z,6.47
2023-08-29T13:38:52.641Z,6.83
2023-08-29T13:41:25.443Z,6.50
2023-08-29T13:43:58.270Z,6.67
2023-08-29T13:46:31.120Z,6.13
2023-08-29T13:49:05.286Z,5.17
2023-08-29T13:51:38.049Z,6.07
2023-08-29T13:54:10.807Z,5.07
2023-08-29T13:56:45.523Z,4.13
2023-08-29T13:59:19.842Z,4.10
2023-08-29T14:01:52.715Z,4.27
2023-08-29T14:04:26.873Z,4.67
2023-08-29T14:07:01.902Z,14.20
2023-08-29T14:09:36.700Z,11.03
2023-08-29T14:12:09.959Z,4.57
2023-08-29T14:14:42.518Z,3.67
2023-08-29T14:17:15.637Z,4.00
2023-08-29T14:19:49.951Z,4.10
2023-08-29T14:22:22.729Z,3.80
2023-08-29T14:24:55.410Z,3.53
2023-08-29T14:27:28.371Z,4.20
2023-08-29T14:30:01.150Z,4.33
2023-08-29T14:32:33.934Z,5.30
2023-08-29T14:35:08.714Z,6.40
2023-08-29T14:37:41.473Z,6.63
2023-08-29T14:40:14.325Z,7.40
2023-08-29T14:42:47.062Z,6.87
2023-08-29T14:45:22.407Z,7.73
2023-08-29T14:47:55.148Z,7.53
2023-08-29T14:50:29.489Z,7.63
2023-08-29T14:53:02.804Z,7.73
2023-08-29T14:55:36.074Z,8.43
2023-08-29T14:58:09.011Z,8.63
2023-08-29T15:00:43.530Z,8.63
2023-08-29T15:03:16.593Z,8.10
2023-08-29T15:05:55.544Z,8.20
2023-08-29T15:08:31.484Z,7.37
2023-08-29T15:11:07.323Z,7.40
2023-08-29T15:13:43.114Z,6.83
2023-08-29T15:16:21.532Z,7.03
2023-08-29T15:18:54.267Z,6.77
2023-08-29T15:21:30.967Z,7.70
2023-08-29T15:24:03.925Z,7.80
2023-08-29T15:26:41.631Z,8.03
2023-08-29T15:29:15.465Z,7.60
2023-08-29T15:31:49.024Z,7.60
2023-08-29T15:34:21.855Z,6.83
2023-08-29T15:36:56.714Z,5.20
2023-08-29T15:39:29.474Z,4.10
2023-08-29T15:42:02.305Z,4.63
2023-08-29T15:44:37.564Z,5.80
2023-08-29T15:47:10.497Z,9.93
2023-08-29T15:49:43.132Z,10.97
2023-08-29T15:52:17.398Z,6.17
2023-08-29T15:54:50.541Z,4.87
2023-08-29T15:57:23.282Z,4.50
2023-08-29T15:59:56.159Z,3.63
2023-08-29T16:02:32.406Z,3.60
2023-08-29T16:05:05.765Z,4.60
2023-08-29T16:07:43.376Z,3.77
2023-08-29T16:10:16.202Z,4.07
2023-08-29T16:12:49.584Z,4.10
2023-08-29T16:15:24.854Z,3.70
2023-08-29T16:17:57.493Z,3.30
2023-08-29T16:20:30.395Z,2.70
2023-08-29T16:23:04.829Z,2.60
2023-08-29T16:25:37.528Z,2.30
2023-08-29T16:28:10.923Z,2.30
2023-08-29T16:30:53.531Z,2.40
2023-08-29T16:33:30.352Z,2.77
2023-08-29T16:36:04.277Z,2.80
2023-08-29T16:38:47.705Z,2.40
2023-08-29T16:41:21.029Z,3.40
2023-08-29T16:43:56.879Z,2.90
2023-08-29T16:46:31.047Z,2.50
2023-08-29T16:49:05.286Z,2.90
2023-08-29T16:51:37.925Z,2.50
2023-08-29T16:54:12.023Z,2.70
2023-08-29T16:56:48.463Z,2.63
2023-08-29T16:59:21.046Z,2.67
2023-08-29T17:04:49.681Z,2.60
2023-08-29T17:07:25.369Z,2.90
2023-08-29T17:10:00.850Z,3.37
2023-08-29T17:12:33.457Z,3.37
2023-08-29T17:15:15.113Z,3.43
2023-08-29T17:17:47.792Z,2.97
2023-08-29T17:20:21.188Z,19.90
2023-08-29T17:22:55.369Z,3.20
2023-08-29T17:25:32.124Z,3.63
2023-08-29T17:28:05.561Z,3.13
2023-08-29T17:30:39.220Z,3.53
2023-08-29T17:33:12.401Z,3.70
2023-08-29T17:35:45.192Z,3.87
2023-08-29T17:38:18.060Z,3.23
2023-08-29T17:40:52.232Z,3.37
2023-08-29T17:43:24.869Z,2.97
2023-08-29T17:45:59.845Z,3.50
2023-08-29T17:48:32.534Z,3.43
2023-08-29T17:51:05.261Z,3.27
2023-08-29T17:53:40.854Z,3.57
2023-08-29T17:56:15.065Z,3.93
2023-08-29T17:58:51.573Z,2.63
2023-08-29T18:01:25.619Z,3.27
2023-08-29T18:04:02.570Z,3.63
2023-08-29T18:06:35.289Z,3.17
2023-08-29T18:09:08.158Z,3.33
2023-08-29T18:11:42.177Z,2.90
2023-08-29T18:14:14.846Z,3.00
2023-08-29T18:16:50.897Z,3.10
2023-08-29T18:19:23.676Z,2.77
2023-08-29T18:21:56.246Z,3.17
2023-08-29T18:24:30.877Z,2.80
2023-08-29T18:27:05.105Z,2.87
2023-08-29T18:29:37.810Z,2.70
2023-08-29T18:32:10.495Z,2.60
2023-08-29T18:34:43.254Z,2.70
2023-08-29T18:37:18.971Z,2.80
2023-08-29T18:39:51.752Z,2.97
2023-08-29T18:42:25.988Z,3.40
2023-08-29T18:44:58.700Z,3.17
2023-08-29T18:47:32.255Z,2.90
2023-08-29T18:50:05.550Z,2.70
2023-08-29T18:52:40.957Z,3.33
2023-08-29T18:55:13.594Z,2.70
2023-08-29T18:57:47.940Z,2.90
2023-08-29T19:00:31.905Z,2.93
2023-08-29T19:03:04.756Z,3.37
2023-08-29T19:05:37.744Z,2.93
2023-08-29T19:08:11.646Z,3.23
2023-08-29T19:10:45.289Z,2.87
2023-08-29T19:13:19.401Z,3.60
2023-08-29T19:15:52.630Z,3.20
2023-08-29T19:18:25.440Z,2.83
2023-08-29T19:20:58.315Z,3.10
2023-08-29T19:23:32.827Z,3.53
2023-08-29T19:26:05.366Z,2.67
2023-08-29T19:28:39.408Z,2.90
2023-08-29T19:31:12.110Z,2.90
2023-08-29T19:33:45.031Z,2.80
2023-08-29T19:36:19.408Z,2.93
2023-08-29T19:38:56.761Z,3.10
2023-08-29T19:41:35.175Z,3.00
2023-08-29T19:44:09.111Z,2.90
2023-08-29T19:46:44.488Z,2.90
2023-08-29T19:49:17.292Z,2.90
2023-08-29T19:51:50.087Z,3.40
2023-08-29T19:54:25.260Z,3.13
2023-08-29T19:56:57.939Z,3.13
2023-08-29T19:59:35.362Z,2.63
2023-08-29T20:02:08.359Z,3.17
2023-08-29T20:04:40.953Z,3.00
2023-08-29T20:07:13.647Z,3.33
2023-08-29T20:09:46.370Z,2.67
2023-08-29T20:12:19.152Z,3.00
2023-08-29T20:14:55.895Z,3.00
2023-08-29T20:17:28.512Z,2.97
2023-08-29T20:20:01.147Z,2.60
2023-08-29T20:22:33.811Z,3.00
2023-08-29T20:25:13.411Z,2.93
2023-08-29T20:27:46.005Z,2.87
2023-08-29T20:30:21.993Z,3.03
2023-08-29T20:32:54.638Z,4.20
2023-08-29T20:35:27.373Z,4.27
2023-08-29T20:37:59.939Z,4.47
2023-08-29T20:40:33.550Z,4.73
2023-08-29T20:43:06.436Z,5.40
2023-08-29T20:45:44.945Z,4.57
2023-08-29T20:48:17.550Z,5.17
2023-08-29T20:50:51.044Z,5.90
2023-08-29T20:53:23.690Z,4.90
2023-08-29T20:55:56.383Z,5.93
2023-08-29T20:58:28.957Z,4.83
2023-08-29T21:01:03.523Z,5.50
2023-08-29T21:03:36.322Z,4.97
2023-08-29T21:06:16.260Z,4.20
2023-08-29T21:08:50.263Z,4.90
2023-08-29T21:11:22.912Z,3.73
2023-08-29T21:13:55.567Z,3.90
2023-08-29T21:16:29.664Z,3.70
2023-08-29T21:19:03.287Z,3.57
2023-08-29T21:21:36.003Z,3.80
2023-08-29T21:24:08.929Z,3.07
2023-08-29T21:26:41.479Z,3.20
2023-08-29T21:29:14.081Z,3.30
2023-08-29T21:31:48.304Z,2.80
2023-08-29T21:34:23.313Z,3.67
2023-08-29T21:36:55.998Z,3.17
2023-08-29T21:39:28.634Z,2.93
2023-08-29T21:42:01.398Z,3.17
2023-08-29T21:44:36.742Z,3.23
2023-08-29T21:47:10.931Z,2.80
2023-08-29T21:49:44.180Z,2.67
2023-08-29T21:52:16.884Z,2.50
2023-08-29T21:54:51.729Z,2.27
2023-08-29T21:57:24.330Z,2.80
2023-08-29T21:59:56.937Z,2.87
2023-08-29T22:02:31.022Z,2.90
2023-08-29T22:05:03.661Z,2.50
2023-08-29T22:07:36.666Z,2.77
2023-08-29T22:10:10.470Z,3.27
2023-08-29T22:12:43.579Z,3.03
2023-08-29T22:15:16.261Z,3.57
2023-08-29T22:17:50.261Z,3.00
2023-08-29T22:20:27.927Z,3.60
2023-08-29T22:23:00.570Z,3.40
2023-08-29T22:25:33.398Z,3.37
2023-08-29T22:28:06.606Z,3.40
2023-08-29T22:30:39.656Z,3.53
2023-08-29T22:33:15.124Z,3.40
2023-08-29T22:35:49.791Z,3.67
2023-08-29T22:38:22.325Z,4.20
2023-08-29T22:40:55.145Z,3.60
2023-08-29T22:43:35.637Z,3.87
2023-08-29T22:46:09.627Z,3.63
2023-08-29T22:48:43.605Z,3.60
2023-08-29T22:51:19.166Z,4.97
2023-08-29T22:53:55.088Z,4.17
2023-08-29T22:56:27.847Z,4.30
2023-08-29T22:59:00.900Z,3.80
2023-08-29T23:01:36.141Z,4.00
2023-08-29T23:04:10.134Z,4.13
2023-08-29T23:06:43.720Z,4.40
2023-08-29T23:09:18.645Z,4.20
2023-08-29T23:11:51.334Z,4.03
2023-08-29T23:14:24.664Z,4.40
2023-08-29T23:16:57.762Z,4.30
2023-08-29T23:19:31.797Z,4.03
2023-08-29T23:22:04.422Z,4.07
2023-08-29T23:24:37.142Z,4.13
2023-08-29T23:27:12.812Z,3.73
2023-08-29T23:29:45.430Z,4.23
2023-08-29T23:32:18.383Z,4.20
2023-08-29T23:34:59.147Z,4.37
2023-08-29T23:37:31.979Z,3.70
2023-08-29T23:40:07.870Z,4.40
2023-08-29T23:42:40.748Z,4.27
2023-08-29T23:45:13.359Z,4.37
2023-08-29T23:47:46.168Z,3.93
2023-08-29T23:50:20.213Z,4.33
2023-08-29T23:52:52.961Z,3.90
2023-08-29T23:55:25.659Z,4.07
2023-08-29T23:57:58.376Z,4.00
